M I D A S
Marine Information and Data Acquisition System
Tripno 248 of the Zeeleeuw from 2002-04-23 06:45:35 to 2002-04-23 11:52:25
Back to CruiseResearch ActivitiesStationsMapUnderway DataData graphs

EquipmentUnitsComment
TimeDGPSUTC
LatitudeDGPSDM.mWGS84
LongitudeDGPSDM.mWGS84
HeadingGyrodeg 
SOGDGPSknotsSpeed over ground
COGDGPSdegCourse over ground
DepthEcho soundermeters200 kHz
Missing or incorrect values are displayed as -999
Navigation data collected by the RV Zeeleeuw from 2002-04-23 06:45:35 to 2002-04-23 11:52:25
Time Latitude Longitude Heading SOG COG Depth
2002-04-23 06:46:37 51°13.688 2°55.906 122.2 0.1 199.8 9
2002-04-23 06:47:37 51°13.687 2°55.905 111.8 0.1 204.6 8.8
2002-04-23 06:48:37 51°13.686 2°55.904 103.2 0.1 242.3 9.3
2002-04-23 06:49:37 51°13.691 2°55.857 93.2 2.9 274 -999
2002-04-23 06:50:37 51°13.688 2°55.774 83.7 3 262 14
2002-04-23 06:51:37 51°13.687 2°55.737 56.3 1.7 50.8 14.7
2002-04-23 06:52:38 51°13.698 2°55.752 10.2 1.7 188 -999
2002-04-23 06:53:37 51°13.684 2°55.742 348 1.8 340.6 14.6
2002-04-23 06:54:37 51°13.767 2°55.684 339 7 336.2 11.7
2002-04-23 06:55:37 51°13.889 2°55.597 338 8.3 334.8 11.5
2002-04-23 06:56:37 51°14.014 2°55.505 338.7 7.6 335.6 12
2002-04-23 06:57:37 51°14.107 2°55.431 335.2 5.7 333.5 12.5
2002-04-23 06:58:37 51°14.203 2°55.344 327.3 7.7 325.6 12.5
2002-04-23 06:59:37 51°14.303 2°55.188 315 8.9 311.6 11.4
2002-04-23 07:00:37 51°14.42 2°54.999 312.7 10.6 317.8 11.5
2002-04-23 07:01:37 51°14.461 2°54.722 279.2 11.3 278.1 11.7
2002-04-23 07:02:37 51°14.422 2°54.44 241.7 11.1 240.1 11.3
2002-04-23 07:03:37 51°14.321 2°54.189 240 11.4 237.9 10.8
2002-04-23 07:04:37 51°14.221 2°53.935 241.3 11.4 239.1 10.7
2002-04-23 07:05:37 51°14.128 2°53.674 241.8 11.4 239.8 10.9
2002-04-23 07:06:37 51°14.028 2°53.402 242.3 12.5 240.1 11.1
2002-04-23 07:07:37 51°13.921 2°53.109 241.7 12.9 239.8 11.5
2002-04-23 07:08:37 51°13.813 2°52.814 242.2 13 240 11.7
2002-04-23 07:09:37 51°13.704 2°52.518 241.8 13 239.7 11.8
2002-04-23 07:10:37 51°13.595 2°52.221 241.5 13 239.4 12
2002-04-23 07:11:37 51°13.486 2°51.924 242.2 12.9 239.6 12.1
2002-04-23 07:12:37 51°13.377 2°51.627 242 12.9 239.9 12.3
2002-04-23 07:13:37 51°13.269 2°51.333 241.7 12.9 239.5 12.2
2002-04-23 07:14:37 51°13.162 2°51.039 241.5 12.8 239.8 12.3
2002-04-23 07:15:37 51°13.056 2°50.745 241.8 12.8 239.8 12.4
2002-04-23 07:16:37 51°12.949 2°50.45 242 12.9 240 12.4
2002-04-23 07:17:37 51°12.842 2°50.156 241.8 12.8 240.1 12.6
2002-04-23 07:18:37 51°12.724 2°49.875 237 12.8 234.3 12.6
2002-04-23 07:19:37 51°12.605 2°49.594 238.5 12.8 236.2 12.5
2002-04-23 07:20:37 51°12.487 2°49.313 237.8 12.7 235.6 12.5
2002-04-23 07:21:37 51°12.368 2°49.034 238 12.7 236.3 12.3
2002-04-23 07:22:37 51°12.25 2°48.755 238.2 12.7 235.8 12.3
2002-04-23 07:23:37 51°12.132 2°48.477 237.7 12.7 235.7 12.2
2002-04-23 07:24:37 51°12.014 2°48.199 238 12.7 235.7 11.9
2002-04-23 07:25:37 51°11.901 2°47.916 240.2 12.6 238.3 11.8
2002-04-23 07:26:37 51°11.79 2°47.632 239.8 12.6 238 11.3
2002-04-23 07:27:37 51°11.678 2°47.349 239.8 12.6 238 10.9
2002-04-23 07:28:37 51°11.567 2°47.067 240 12.6 237.9 10.6
2002-04-23 07:29:37 51°11.455 2°46.786 240.3 12.5 237.8 10.2
2002-04-23 07:30:37 51°11.343 2°46.505 239.7 12.6 237.1 10.2
2002-04-23 07:31:37 51°11.231 2°46.224 240 12.6 237.6 10.3
2002-04-23 07:32:37 51°11.119 2°45.942 240.2 12.6 237.6 10.3
2002-04-23 07:33:37 51°11.006 2°45.66 240 12.6 237.6 10.2
2002-04-23 07:34:37 51°10.893 2°45.38 239.7 12.5 237.5 10.3
2002-04-23 07:35:37 51°10.782 2°45.1 239.7 12.5 237.4 10
2002-04-23 07:36:37 51°10.671 2°44.82 240 12.5 237.7 -999
2002-04-23 07:37:37 51°10.559 2°44.54 239.8 12.5 237.4 10.8
2002-04-23 07:38:37 51°10.447 2°44.26 240 12.5 237.5 10.9
2002-04-23 07:39:37 51°10.335 2°43.981 239.8 12.5 237.3 11
2002-04-23 07:40:37 51°10.226 2°43.7 243.8 12.5 241.1 11.1
2002-04-23 07:41:37 51°10.204 2°43.381 284.5 12.5 282.7 10.8
2002-04-23 07:42:37 51°10.254 2°43.057 276.7 12.5 277.1 11.1
2002-04-23 07:43:37 51°10.247 2°42.733 255.7 12.3 254.8 10.9
2002-04-23 07:44:37 51°10.192 2°42.415 259.5 12.5 257.8 10.7
2002-04-23 07:45:37 51°10.151 2°42.091 259.7 12.5 258.2 10.8
2002-04-23 07:46:37 51°10.11 2°41.769 259.8 12.4 258.2 11.1
2002-04-23 07:47:37 51°10.068 2°41.446 259.7 12.4 258.5 11.2
2002-04-23 07:48:37 51°10.027 2°41.124 259.7 12.4 258.5 11.6
2002-04-23 07:49:37 51°9.986 2°40.802 259.8 12.4 258.9 11.9
2002-04-23 07:50:37 51°9.946 2°40.48 259.8 12.4 259 12.2
2002-04-23 07:51:37 51°9.906 2°40.159 259.8 12.3 259.2 12.5
2002-04-23 07:52:37 51°9.866 2°39.839 260.2 12.4 258.8 12.8
2002-04-23 07:53:37 51°9.827 2°39.518 259.8 12.4 258.8 12.9
2002-04-23 07:54:37 51°9.785 2°39.197 260 12.4 258.7 13.2
2002-04-23 07:55:37 51°9.744 2°38.875 259.7 12.4 258.3 13.7
2002-04-23 07:56:37 51°9.702 2°38.553 259.8 12.4 258 13.8
2002-04-23 07:57:37 51°9.66 2°38.231 259.7 12.4 258.1 14.8
2002-04-23 07:58:37 51°9.618 2°37.908 259.5 12.4 258.4 15.5
2002-04-23 07:59:37 51°9.577 2°37.586 259.8 12.4 258.7 16.5
2002-04-23 08:00:37 51°9.537 2°37.265 260.8 12.4 259.3 17.6
2002-04-23 08:01:37 51°9.518 2°36.938 265.3 12.4 265.1 18.2
2002-04-23 08:02:37 51°9.499 2°36.612 265 12.3 264.6 18
2002-04-23 08:03:37 51°9.479 2°36.287 264.8 12.3 264.2 19.1
2002-04-23 08:04:37 51°9.46 2°35.964 264.8 12.3 264.7 19.2
2002-04-23 08:05:37 51°9.469 2°35.639 282 12.4 281.2 19.4
2002-04-23 08:06:37 51°9.539 2°35.324 289.5 12.6 290.7 20.7
2002-04-23 08:07:37 51°9.647 2°35.034 304.2 12.9 306.6 21.7
2002-04-23 08:08:37 51°9.77 2°34.755 304.3 12.9 305.3 17.1
2002-04-23 08:09:37 51°9.93 2°34.527 330.8 13.2 330.7 13.3
2002-04-23 08:10:37 51°10.15 2°34.497 11.5 13.7 11 12.9
2002-04-23 08:11:37 51°10.352 2°34.678 35.3 14.1 35.5 11.7
2002-04-23 08:12:37 51°10.535 2°34.913 40.2 14.2 40.3 11.5
2002-04-23 08:13:37 51°10.716 2°35.154 42.3 14.2 41.3 11.7
2002-04-23 08:14:37 51°10.89 2°35.408 44.5 14.2 42.4 11.8
2002-04-23 08:15:37 51°11.065 2°35.662 42 14.3 41.5 12.1
2002-04-23 08:16:37 51°11.241 2°35.914 40.8 14.2 40.7 12.2
2002-04-23 08:17:37 51°11.424 2°36.152 39.3 14.2 39.3 12.4
2002-04-23 08:18:37 51°11.607 2°36.387 40 14.2 38.4 12.6
2002-04-23 08:19:37 51°11.789 2°36.626 40.7 14.2 38.8 12.5
2002-04-23 08:20:37 51°11.973 2°36.863 38.3 14.2 37.9 12.7
2002-04-23 08:21:37 51°12.157 2°37.1 39.5 14.2 39.4 13.1
2002-04-23 08:22:37 51°12.341 2°37.341 40.8 14.4 40.3 13.6
2002-04-23 08:23:37 51°12.527 2°37.582 40.3 14.3 38.9 14.5
2002-04-23 08:24:37 51°12.713 2°37.82 39 14.4 38.7 15.3
2002-04-23 08:25:37 51°12.899 2°38.061 36.7 14.4 37.2 15.7
2002-04-23 08:26:37 51°13.1 2°38.265 28.3 14.2 27.8 16.5
2002-04-23 08:27:37 51°13.324 2°38.36 5.7 13.9 8.9 16.6
2002-04-23 08:28:37 51°13.536 2°38.289 331.8 13 332.3 15.7
2002-04-23 08:29:37 51°13.721 2°38.106 325 13 326.5 12.5
2002-04-23 08:30:37 51°13.871 2°37.871 302.3 12.6 305.6 16.4
2002-04-23 08:31:37 51°13.961 2°37.576 282.3 12.2 285.9 21.6
2002-04-23 08:32:37 51°13.94 2°37.26 257.2 12.1 256.8 22.8
2002-04-23 08:33:37 51°13.888 2°36.95 254.2 12.1 252.7 22.7
2002-04-23 08:34:37 51°13.826 2°36.646 251.2 12 249.9 22.5
2002-04-23 08:35:37 51°13.746 2°36.355 249 12 246.9 21.8
2002-04-23 08:36:37 51°13.671 2°36.061 250.2 12 248.1 21
2002-04-23 08:37:37 51°13.596 2°35.766 249.8 12 247.8 21.1
2002-04-23 08:38:37 51°13.521 2°35.47 250.2 12 247.4 19.8
2002-04-23 08:39:37 51°13.445 2°35.173 249.7 12.1 247.9 18.3
2002-04-23 08:40:37 51°13.363 2°34.882 245.2 12.1 243 18.6
2002-04-23 08:41:37 51°13.27 2°34.597 246 12.1 243.3 18.3
2002-04-23 08:42:37 51°13.18 2°34.308 246.2 12.2 243.6 17.6
2002-04-23 08:43:37 51°13.088 2°34.019 245.5 12.2 242.9 16.6
2002-04-23 08:44:37 51°12.996 2°33.731 246.2 12.1 243 16.2
2002-04-23 08:45:37 51°12.903 2°33.443 246 12.1 242.9 17.5
2002-04-23 08:46:37 51°12.81 2°33.157 245.5 12.2 242.8 19.2
2002-04-23 08:47:37 51°12.717 2°32.869 246 12.2 242.4 20.3
2002-04-23 08:48:37 51°12.624 2°32.58 246 12.3 243.7 22.2
2002-04-23 08:49:37 51°12.532 2°32.288 245.8 12.3 243.4 24.1
2002-04-23 08:50:37 51°12.441 2°31.996 246 12.3 243.7 24.4
2002-04-23 08:51:37 51°12.349 2°31.704 245.8 12.3 243.3 25.4
2002-04-23 08:52:37 51°12.258 2°31.41 245.5 12.3 243.6 25.3
2002-04-23 08:53:37 51°12.168 2°31.117 246.2 12.3 243.9 25.3
2002-04-23 08:54:37 51°12.078 2°30.828 246.2 12 243.6 25.1
2002-04-23 08:55:37 51°11.988 2°30.544 246.2 11.9 242.6 24.7
2002-04-23 08:56:37 51°11.898 2°30.266 246.2 11.8 243.1 25.3
2002-04-23 08:57:37 51°11.808 2°29.987 246.2 11.8 242.9 25.1
2002-04-23 08:58:37 51°11.72 2°29.706 248.5 11.8 245.2 25.3
2002-04-23 08:59:37 51°11.647 2°29.415 250.2 11.9 248.1 25.8
2002-04-23 09:00:37 51°11.57 2°29.123 249.7 12 246.6 25.8
2002-04-23 09:01:37 51°11.491 2°28.828 250 12.1 246.1 26.1
2002-04-23 09:02:37 51°11.413 2°28.533 252.7 12.1 249.6 24.6
2002-04-23 09:03:38 51°11.343 2°28.226 252.8 12.1 249.6 25.1
2002-04-23 09:04:37 51°11.284 2°27.924 256.7 12.2 253.6 24.5
2002-04-23 09:05:37 51°11.243 2°27.61 268.7 12.2 265.2 24.4
2002-04-23 09:06:37 51°11.246 2°27.285 270.8 12.3 269.4 25.1
2002-04-23 09:07:37 51°11.239 2°26.959 270 12.3 268.1 23.8
2002-04-23 09:08:37 51°11.233 2°26.63 270 12.4 268.2 20.8
2002-04-23 09:09:37 51°11.229 2°26.305 270.3 12.2 269.1 18.3
2002-04-23 09:10:37 51°11.233 2°25.982 275.7 12.2 274.3 15.8
2002-04-23 09:11:37 51°11.311 2°25.685 306.8 12.6 307.9 19.6
2002-04-23 09:12:37 51°11.478 2°25.464 328.7 13.4 328.9 24.7
2002-04-23 09:13:37 51°11.707 2°25.432 12.2 14.4 11.2 27.9
2002-04-23 09:14:37 51°11.939 2°25.538 12.2 14.5 12.8 27
2002-04-23 09:15:37 51°12.177 2°25.597 11.8 14.5 12.6 28
2002-04-23 09:16:37 51°12.408 2°25.713 19 14.6 18.9 27.9
2002-04-23 09:17:37 51°12.637 2°25.846 17 14.7 18.3 28.4
2002-04-23 09:18:37 51°12.869 2°25.966 21 14.7 20.2 28
2002-04-23 09:19:37 51°13.067 2°26.2 47 15.1 45.7 28.8
2002-04-23 09:20:37 51°13.241 2°26.48 45.5 14.9 43.3 29.3
2002-04-23 09:21:37 51°13.421 2°26.754 53.3 15.2 49 28.8
2002-04-23 09:22:37 51°13.559 2°27.084 60.8 15.1 56.9 28.8
2002-04-23 09:23:37 51°13.705 2°27.406 54.8 15 52.7 28.5
2002-04-23 09:24:37 51°13.851 2°27.725 57 15 54.8 28.4
2002-04-23 09:25:37 51°13.995 2°28.044 57.7 14.8 54.5 28.8
2002-04-23 09:26:37 51°14.14 2°28.362 57 14.9 53.6 28.3
2002-04-23 09:27:37 51°14.288 2°28.68 55 14.9 51.3 29.6
2002-04-23 09:28:37 51°14.442 2°28.99 53.5 14.8 51.7 29.6
2002-04-23 09:29:37 51°14.593 2°29.305 55.3 15 53.7 29.2
2002-04-23 09:30:37 51°14.743 2°29.621 56.3 15 52.9 28.8
2002-04-23 09:31:37 51°14.897 2°29.937 54 15.2 51 28.8
2002-04-23 09:32:37 51°15.049 2°30.253 53.5 15 52 28.5
2002-04-23 09:33:37 51°15.2 2°30.573 55.3 15.2 54 28.1
2002-04-23 09:34:37 51°15.352 2°30.892 55.5 15.1 52.7 25
2002-04-23 09:35:37 51°15.502 2°31.21 54 15 51.7 24.1
2002-04-23 09:36:38 51°15.653 2°31.537 55.2 15 53.8 24.8
2002-04-23 09:37:37 51°15.793 2°31.861 56.5 15.2 55.1 26
2002-04-23 09:38:37 51°15.937 2°32.187 55.3 15 53.9 24.6
2002-04-23 09:39:37 51°16.08 2°32.514 55.8 15 54.8 24.1
2002-04-23 09:40:37 51°16.208 2°32.852 67.8 14.9 64.5 21.9
2002-04-23 09:41:37 51°16.234 2°33.229 105.3 14.1 99.4 11.3
2002-04-23 09:42:37 51°16.122 2°33.552 125.8 14.1 121.1 11.6
2002-04-23 09:43:37 51°16 2°33.87 125.7 14 121.8 12.9
2002-04-23 09:44:37 51°15.883 2°34.19 125.2 13.9 117.8 19.6
2002-04-23 09:45:37 51°15.771 2°34.508 126 13.6 119.2 27.1
2002-04-23 09:46:37 51°15.667 2°34.827 119 13.6 113.1 28.7
2002-04-23 09:47:37 51°15.681 2°35.19 76.5 14.2 70.9 28.8
2002-04-23 09:48:37 51°15.828 2°35.49 44.8 14.6 41 28.8
2002-04-23 09:49:37 51°16.02 2°35.727 41.7 14.7 39.2 29.1
2002-04-23 09:50:37 51°16.191 2°36.006 49 14.7 46.9 29.1
2002-04-23 09:51:37 51°16.375 2°36.264 43.8 14.7 39.3 30.7
2002-04-23 09:52:37 51°16.56 2°36.52 44 14.8 40.6 28.7
2002-04-23 09:53:37 51°16.745 2°36.781 42.8 14.9 40.4 28.7
2002-04-23 09:54:37 51°16.93 2°37.045 45.5 14.9 43 30.5
2002-04-23 09:55:37 51°17.135 2°37.252 18.7 14.6 19.1 29.1
2002-04-23 09:56:37 51°17.362 2°37.209 331 13.8 335.3 29.4
2002-04-23 09:57:37 51°17.538 2°36.984 313.5 13.6 317.9 27.8
2002-04-23 09:58:37 51°17.701 2°36.734 315.8 13.5 315.7 21.8
2002-04-23 09:59:37 51°17.86 2°36.488 315 13.2 315 17.6
2002-04-23 10:00:37 51°18.015 2°36.243 313.7 13.1 315.7 15.8
2002-04-23 10:01:37 51°18.185 2°36.021 324.5 13.3 324.3 19.2
2002-04-23 10:02:37 51°18.37 2°35.824 324.7 13.4 326.2 25.4
2002-04-23 10:03:37 51°18.555 2°35.629 322.7 13.3 328.1 28.2
2002-04-23 10:04:37 51°18.741 2°35.439 323.7 13.2 326.1 24.2
2002-04-23 10:05:37 51°18.946 2°35.298 349.8 13.9 350.5 25
2002-04-23 10:06:37 51°19.18 2°35.362 17.7 14.7 18.5 23.9
2002-04-23 10:07:37 51°19.395 2°35.557 38 15 35.9 21.9
2002-04-23 10:08:37 51°19.567 2°35.85 58.7 15.2 54.5 22.9
2002-04-23 10:09:38 51°19.696 2°36.201 61.5 15.1 59.7 23.6
2002-04-23 10:10:37 51°19.841 2°36.521 57.5 15.1 51.9 23.6
2002-04-23 10:11:37 51°19.991 2°36.844 57.5 15.2 52.8 23.8
2002-04-23 10:12:38 51°20.139 2°37.173 57 15 53.7 24.4
2002-04-23 10:13:37 51°20.283 2°37.492 58.2 15 54.5 23.2
2002-04-23 10:14:38 51°20.427 2°37.821 59 14.9 55.6 25.4
2002-04-23 10:15:37 51°20.572 2°38.135 58 14.9 54.1 25.5
2002-04-23 10:16:37 51°20.715 2°38.454 57 14.9 53.8 26.2
2002-04-23 10:17:37 51°20.831 2°38.799 76.5 14.8 71.3 27
2002-04-23 10:18:37 51°20.845 2°39.186 100.7 14.6 94.5 27.2
2002-04-23 10:19:37 51°20.808 2°39.569 107.7 14.5 101.3 25.8
2002-04-23 10:20:37 51°20.762 2°39.948 106.8 14.6 101.3 28.3
2002-04-23 10:21:37 51°20.719 2°40.324 107.2 14.3 100.8 28
2002-04-23 10:22:37 51°20.676 2°40.701 107 14.4 100.6 28.7
2002-04-23 10:23:37 51°20.634 2°41.078 107.2 14.4 100.6 29.4
2002-04-23 10:24:37 51°20.591 2°41.456 107.2 14.5 100.8 25.1
2002-04-23 10:25:37 51°20.546 2°41.835 107 14.6 100.9 22
2002-04-23 10:26:37 51°20.5 2°42.215 107.2 14.6 101.5 21.2
2002-04-23 10:27:37 51°20.454 2°42.593 106.2 14.5 100.5 24.6
2002-04-23 10:28:37 51°20.406 2°42.967 106.8 14.3 101.3 27.1
2002-04-23 10:29:37 51°20.361 2°43.338 106.7 14.2 100.6 28.6
2002-04-23 10:30:37 51°20.314 2°43.706 107.2 14.2 101.8 28.7
2002-04-23 10:31:37 51°20.269 2°44.074 107.2 14.3 101.6 28.6
2002-04-23 10:32:37 51°20.22 2°44.444 109.5 14.2 103.5 27.7
2002-04-23 10:33:38 51°20.161 2°44.819 110.3 14.4 103.6 26.4
2002-04-23 10:34:38 51°20.108 2°45.191 109.7 14.4 103 24.9
2002-04-23 10:35:37 51°20.055 2°45.557 110.2 14.4 103.3 20.1
2002-04-23 10:36:37 51°19.974 2°45.911 123.7 14.2 116.7 14.9
2002-04-23 10:37:37 51°19.877 2°46.25 120.2 14.1 113.7 17.1
2002-04-23 10:38:37 51°19.782 2°46.592 120.2 14.1 114.3 21
2002-04-23 10:39:37 51°19.686 2°46.933 119.8 14.2 113.9 23
2002-04-23 10:40:38 51°19.588 2°47.281 121 14.1 114.9 23.7
2002-04-23 10:41:37 51°19.466 2°47.585 134.5 13.8 126.6 23.5
2002-04-23 10:42:37 51°19.337 2°47.884 129.5 13.8 122.9 22.2
2002-04-23 10:43:37 51°19.212 2°48.193 130.2 14 123.6 19.9
2002-04-23 10:44:37 51°19.087 2°48.503 129.2 13.8 122.6 17.5
2002-04-23 10:45:38 51°18.957 2°48.817 130 13.8 123.7 15.3
2002-04-23 10:46:37 51°18.832 2°49.117 129.8 13.9 123.6 12.8
2002-04-23 10:47:37 51°18.703 2°49.419 130.5 13.7 125.1 12.2
2002-04-23 10:48:37 51°18.575 2°49.718 129.7 13.6 124.5 14.3
2002-04-23 10:49:37 51°18.446 2°50.017 130 13.6 124.3 15.8
2002-04-23 10:50:37 51°18.318 2°50.315 129.5 13.7 124.6 16.1
2002-04-23 10:51:37 51°18.189 2°50.612 129.5 13.7 124.5 15
2002-04-23 10:52:37 51°18.08 2°50.93 124 13.6 118.6 14.3
2002-04-23 10:53:37 51°17.97 2°51.246 125 13.7 119.4 13.1
2002-04-23 10:54:37 51°17.853 2°51.553 133 13.6 127.4 12.2
2002-04-23 10:55:37 51°17.701 2°51.812 140.2 13.4 135 12.2
2002-04-23 10:56:37 51°17.538 2°52.051 149.2 13.3 143.8 12.3
2002-04-23 10:57:37 51°17.343 2°52.21 157.5 13.2 153 12.3
2002-04-23 10:58:37 51°17.153 2°52.38 154.8 13.1 150.3 11.9
2002-04-23 10:59:37 51°16.963 2°52.553 155 13.2 150.4 11.9
2002-04-23 11:00:38 51°16.769 2°52.731 155.2 13.3 149.8 11.4
2002-04-23 11:01:37 51°16.577 2°52.891 160.8 13.2 155.1 13.4
2002-04-23 11:02:37 51°16.376 2°53.036 160.5 13.3 155 14.1
2002-04-23 11:03:37 51°16.177 2°53.19 160.5 13.2 154.1 14.1
2002-04-23 11:04:37 51°15.978 2°53.342 159.2 13.3 154.5 13.6
2002-04-23 11:05:37 51°15.778 2°53.493 160.5 13.3 154.8 13.2
2002-04-23 11:06:37 51°15.585 2°53.666 149.7 13.4 144.2 12.5
2002-04-23 11:07:37 51°15.411 2°53.892 147.5 13.5 141.7 11.5
2002-04-23 11:08:37 51°15.232 2°54.103 148 13.5 144.1 10.7
2002-04-23 11:09:37 51°15.073 2°54.289 148.5 9.9 142.7 10.1
2002-04-23 11:10:37 51°14.965 2°54.432 145.7 8 137.4 10.5
2002-04-23 11:11:37 51°14.874 2°54.568 141.8 7.3 132.6 10.8
2002-04-23 11:12:37 51°14.81 2°54.667 149.3 4.2 136.9 10.4
2002-04-23 11:13:37 51°14.775 2°54.734 140.3 3 123.6 10.8
2002-04-23 11:14:37 51°14.753 2°54.791 146.5 2.3 121.1 10.9
2002-04-23 11:15:37 51°14.725 2°54.835 173.3 2.7 153.1 11.2
2002-04-23 11:16:37 51°14.689 2°54.783 263.8 4.8 262.9 10.7
2002-04-23 11:17:38 51°14.798 2°54.672 340.2 11.3 341.2 10.8
2002-04-23 11:18:37 51°14.995 2°54.544 334.5 13.3 335 10
2002-04-23 11:19:37 51°15.133 2°54.521 20.2 4.9 19.4 10
2002-04-23 11:20:37 51°15.255 2°54.606 18.8 11.5 18.9 10.3
2002-04-23 11:21:37 51°15.47 2°54.63 355.8 13.1 354.7 10.8
2002-04-23 11:22:37 51°15.597 2°54.576 331.5 3.8 339.7 11.4
2002-04-23 11:23:38 51°15.619 2°54.585 358.7 3.7 4.3 -999
2002-04-23 11:24:37 51°15.734 2°54.446 311.3 12 312.5 11.7
2002-04-23 11:25:37 51°15.894 2°54.212 319.3 13.2 320.8 12.5
2002-04-23 11:26:37 51°15.884 2°53.991 200 8.9 199.5 12.5
2002-04-23 11:27:37 51°15.703 2°54.081 160 11.8 156.6 11.8
2002-04-23 11:28:37 51°15.533 2°54.198 160.3 11 157.5 11.5
2002-04-23 11:29:37 51°15.364 2°54.311 159.3 11 156.4 10.8
2002-04-23 11:30:37 51°15.196 2°54.425 157.8 11 155.2 10.2
2002-04-23 11:31:37 51°15.03 2°54.549 157.8 10.9 152.8 9.9
2002-04-23 11:32:37 51°14.861 2°54.655 159.7 10.9 156.1 10.3
2002-04-23 11:33:37 51°14.707 2°54.768 161.2 8.9 156.2 18
2002-04-23 11:34:37 51°14.586 2°54.856 163.2 7.6 157.6 11
2002-04-23 11:35:37 51°14.473 2°54.933 159.3 7.2 157.5 10.9
2002-04-23 11:36:37 51°14.376 2°55.035 132.8 6.9 133.8 11.8
2002-04-23 11:37:37 51°14.306 2°55.173 130.5 6.2 129.5 12
2002-04-23 11:38:41 51°14.247 2°55.282 139 4.4 136.7 -999
2002-04-23 11:39:41 51°14.19 2°55.35 152.2 4.3 149.5 -999
2002-04-23 11:40:42 51°14.124 2°55.405 154.2 4.5 152.6 -999
2002-04-23 11:41:41 51°14.058 2°55.459 155.5 4.6 152.8 -999
2002-04-23 11:42:41 51°13.988 2°55.513 156.3 4.7 155 -999
2002-04-23 11:43:42 51°13.915 2°55.568 156.8 4.7 155.1 -999
2002-04-23 11:44:42 51°13.846 2°55.623 153.8 4.3 152.9 -999
2002-04-23 11:45:41 51°13.794 2°55.676 146.5 3.5 145.1 -999
2002-04-23 11:46:41 51°13.75 2°55.727 144.3 3.2 143.1 -999
2002-04-23 11:47:42 51°13.715 2°55.778 130 2.6 130.9 -999
2002-04-23 11:48:42 51°13.695 2°55.833 110.5 2.3 111.1 -999
2002-04-23 11:49:41 51°13.688 2°55.886 96.3 1.6 93.9 -999
2002-04-23 11:50:41 51°13.689 2°55.898 102.3 0.1 13.8 -999
2002-04-23 11:51:42 51°13.687 2°55.903 114.7 0.5 113.3 -999